createdAt,value
2023-06-24T00:00:53.686Z,8.33
2023-06-24T00:03:20.404Z,10.37
2023-06-24T00:05:50.367Z,9.13
2023-06-24T00:08:20.312Z,9.67
2023-06-24T00:10:47.802Z,9.13
2023-06-24T00:13:15.600Z,9.53
2023-06-24T00:15:43.986Z,10.27
2023-06-24T00:18:11.108Z,8.80
2023-06-24T00:20:38.417Z,9.43
2023-06-24T00:23:05.244Z,8.97
2023-06-24T00:25:31.897Z,9.47
2023-06-24T00:27:58.897Z,9.90
2023-06-24T00:30:26.815Z,10.40
2023-06-24T00:32:53.547Z,9.13
2023-06-24T00:35:20.193Z,10.77
2023-06-24T00:37:47.620Z,10.83
2023-06-24T00:40:16.964Z,10.07
2023-06-24T00:42:47.279Z,9.57
2023-06-24T00:45:14.069Z,9.77
2023-06-24T00:47:41.695Z,9.07
2023-06-24T00:50:08.581Z,9.67
2023-06-24T00:52:37.960Z,9.50
2023-06-24T00:55:05.196Z,9.93
2023-06-24T00:57:31.860Z,10.47
2023-06-24T01:00:01.009Z,9.40
2023-06-24T01:02:29.288Z,10.23
2023-06-24T01:04:56.139Z,10.40
2023-06-24T01:07:22.996Z,9.73
2023-06-24T01:09:50.158Z,9.07
2023-06-24T01:12:16.956Z,10.57
2023-06-24T01:14:43.593Z,10.60
2023-06-24T01:17:15.998Z,10.93
2023-06-24T01:19:50.723Z,9.73
2023-06-24T01:22:21.210Z,11.43
2023-06-24T01:25:14.997Z,11.40
2023-06-24T01:27:42.801Z,11.10
2023-06-24T01:30:24.589Z,11.63
2023-06-24T01:32:56.907Z,10.67
2023-06-24T01:35:26.881Z,11.27
2023-06-24T01:37:54.112Z,10.40
2023-06-24T01:40:26.955Z,10.53
2023-06-24T01:42:54.557Z,10.27
2023-06-24T01:45:24.063Z,11.40
2023-06-24T01:47:55.524Z,9.83
2023-06-24T01:50:23.637Z,11.30
2023-06-24T01:52:52.059Z,10.70
2023-06-24T01:55:20.815Z,10.70
2023-06-24T01:57:49.542Z,11.27
2023-06-24T02:00:16.544Z,10.87
2023-06-24T02:02:49.419Z,10.30
2023-06-24T02:05:49.898Z,12.40
2023-06-24T02:08:22.235Z,11.07
2023-06-24T02:10:49.958Z,11.50
2023-06-24T02:13:17.311Z,10.87
2023-06-24T02:15:43.998Z,10.70
2023-06-24T02:18:11.893Z,11.00
2023-06-24T02:20:40.232Z,11.50
2023-06-24T02:23:07.762Z,10.50
2023-06-24T02:25:35.144Z,10.70
2023-06-24T02:28:02.161Z,9.27
2023-06-24T02:30:29.653Z,11.33
2023-06-24T02:32:56.366Z,10.70
2023-06-24T02:35:22.997Z,12.98
2023-06-24T02:37:49.608Z,10.87
2023-06-24T02:40:16.976Z,11.20
2023-06-24T02:42:43.561Z,11.00
2023-06-24T02:45:10.558Z,10.90
2023-06-24T02:47:37.752Z,10.47
2023-06-24T02:50:08.636Z,9.80
2023-06-24T02:52:38.020Z,10.20
2023-06-24T02:55:07.896Z,9.90
2023-06-24T02:57:56.010Z,11.00
2023-06-24T03:00:28.853Z,10.33
2023-06-24T03:03:18.548Z,11.57
2023-06-24T03:05:51.362Z,12.47
2023-06-24T03:08:19.775Z,11.10
2023-06-24T03:10:48.606Z,11.20
2023-06-24T03:13:20.281Z,11.20
2023-06-24T03:15:52.808Z,10.43
2023-06-24T03:18:19.578Z,10.60
2023-06-24T03:20:48.701Z,10.80
2023-06-24T03:23:19.292Z,10.97
2023-06-24T03:25:46.008Z,10.70
2023-06-24T03:28:12.877Z,10.53
2023-06-24T03:30:47.145Z,10.57
2023-06-24T03:33:18.464Z,11.23
2023-06-24T03:35:45.904Z,10.73
2023-06-24T03:38:17.140Z,11.50
2023-06-24T03:40:45.021Z,11.40
2023-06-24T03:43:11.718Z,10.50
2023-06-24T03:45:38.477Z,11.37
2023-06-24T03:48:06.099Z,12.10
2023-06-24T03:50:32.870Z,10.93
2023-06-24T03:53:00.225Z,10.57
2023-06-24T03:55:28.147Z,10.87
2023-06-24T03:57:54.893Z,11.03
2023-06-24T04:00:22.266Z,11.60
2023-06-24T04:02:49.419Z,12.07
2023-06-24T04:05:16.500Z,11.40
2023-06-24T04:07:48.386Z,12.10
2023-06-24T04:10:19.274Z,12.77
2023-06-24T04:12:46.346Z,14.23
2023-06-24T04:15:13.700Z,13.87
2023-06-24T04:17:40.339Z,13.10
2023-06-24T04:20:09.959Z,12.97
2023-06-24T04:22:42.061Z,13.70
2023-06-24T04:25:09.154Z,13.53
2023-06-24T04:27:36.157Z,15.17
2023-06-24T04:30:05.212Z,14.53
2023-06-24T04:32:32.300Z,15.47
2023-06-24T04:34:59.492Z,13.67
2023-06-24T04:37:26.536Z,15.47
2023-06-24T04:39:54.370Z,15.00
2023-06-24T04:42:21.009Z,17.60
2023-06-24T04:44:52.305Z,14.90
2023-06-24T04:47:19.346Z,15.97
2023-06-24T04:49:46.013Z,17.80
2023-06-24T04:52:13.232Z,18.53
2023-06-24T04:54:39.777Z,17.70
2023-06-24T04:57:09.220Z,19.03
2023-06-24T04:59:35.891Z,20.10
2023-06-24T05:02:02.540Z,18.07
2023-06-24T05:04:29.158Z,19.70
2023-06-24T05:06:55.793Z,19.43
2023-06-24T05:09:22.486Z,16.60
2023-06-24T05:11:49.062Z,16.37
2023-06-24T05:14:15.687Z,17.30
2023-06-24T05:16:42.297Z,19.80
2023-06-24T05:19:08.903Z,19.17
2023-06-24T05:21:35.531Z,17.50
2023-06-24T05:24:02.140Z,17.00
2023-06-24T05:26:29.662Z,18.10
2023-06-24T05:28:56.270Z,17.20
2023-06-24T05:31:22.926Z,17.23
2023-06-24T05:33:49.579Z,17.53
2023-06-24T05:36:16.206Z,16.33
2023-06-24T05:38:42.811Z,16.87
2023-06-24T05:41:09.416Z,18.03
2023-06-24T05:43:36.132Z,17.50
2023-06-24T05:46:02.908Z,15.40
2023-06-24T05:48:29.482Z,17.20
2023-06-24T05:50:56.074Z,17.63
2023-06-24T05:53:22.696Z,16.10
2023-06-24T05:55:49.529Z,15.20
2023-06-24T05:58:16.107Z,15.40
2023-06-24T06:00:42.694Z,15.83
2023-06-24T06:03:10.682Z,14.50
2023-06-24T06:05:37.463Z,14.00
2023-06-24T06:08:04.307Z,13.80
2023-06-24T06:10:30.973Z,14.00
2023-06-24T06:12:57.656Z,13.57
2023-06-24T06:15:24.266Z,12.57
2023-06-24T06:17:50.845Z,12.63
2023-06-24T06:20:17.487Z,13.53
2023-06-24T06:22:44.068Z,13.47
2023-06-24T06:25:10.696Z,11.77
2023-06-24T06:27:37.494Z,12.93
2023-06-24T06:30:04.913Z,13.27
2023-06-24T06:32:32.725Z,12.27
2023-06-24T06:34:59.603Z,12.77
2023-06-24T06:37:26.211Z,12.20
2023-06-24T06:39:52.851Z,11.70
2023-06-24T06:42:19.413Z,12.30
2023-06-24T06:44:46.006Z,11.73
2023-06-24T06:47:12.611Z,10.67
2023-06-24T06:49:39.187Z,11.53
2023-06-24T06:52:06.399Z,20.50
2023-06-24T06:54:32.974Z,11.53
2023-06-24T06:57:03.646Z,9.93
2023-06-24T06:59:30.782Z,13.40
2023-06-24T07:01:57.478Z,10.17
2023-06-24T07:04:24.069Z,11.30
2023-06-24T07:06:50.844Z,11.13
2023-06-24T07:09:17.599Z,10.40
2023-06-24T07:11:44.479Z,9.10
2023-06-24T07:14:11.132Z,9.00
2023-06-24T07:16:38.071Z,9.43
2023-06-24T07:19:04.672Z,9.57
2023-06-24T07:21:31.279Z,9.13
2023-06-24T07:23:58.217Z,10.33
2023-06-24T07:26:24.842Z,11.57
2023-06-24T07:29:04.249Z,11.00
2023-06-24T07:31:35.496Z,10.57
2023-06-24T07:34:02.626Z,10.73
2023-06-24T07:36:29.350Z,10.00
2023-06-24T07:38:55.942Z,10.23
2023-06-24T07:41:22.583Z,10.47
2023-06-24T07:43:49.164Z,9.50
2023-06-24T07:46:16.069Z,10.03
2023-06-24T07:48:42.663Z,9.80
2023-06-24T07:51:10.460Z,9.63
2023-06-24T07:53:37.224Z,10.83
2023-06-24T07:56:03.899Z,9.80
2023-06-24T07:58:30.476Z,10.40
2023-06-24T08:00:57.063Z,10.03
2023-06-24T08:03:24.174Z,9.70
2023-06-24T08:05:51.283Z,9.67
2023-06-24T08:08:20.711Z,8.83
2023-06-24T08:10:47.581Z,9.70
2023-06-24T08:13:14.163Z,8.97
2023-06-24T08:15:42.578Z,9.27
2023-06-24T08:18:09.482Z,10.67
2023-06-24T08:20:36.121Z,9.50
2023-06-24T08:23:02.756Z,9.37
2023-06-24T08:26:16.600Z,9.43
2023-06-24T08:29:04.795Z,9.37
2023-06-24T08:31:31.813Z,8.97
2023-06-24T08:34:00.529Z,9.37
2023-06-24T08:36:28.235Z,8.10
2023-06-24T08:38:55.164Z,8.50
2023-06-24T08:41:22.216Z,9.00
2023-06-24T08:43:48.762Z,9.00
2023-06-24T08:46:16.373Z,10.00
2023-06-24T08:48:44.986Z,9.53
2023-06-24T08:51:12.781Z,9.27
2023-06-24T08:53:40.048Z,9.73
2023-06-24T08:56:07.108Z,9.17
2023-06-24T08:58:34.364Z,9.33
2023-06-24T09:01:01.465Z,8.50
2023-06-24T09:03:28.237Z,8.27
2023-06-24T09:05:55.127Z,8.67
2023-06-24T09:08:23.250Z,9.03
2023-06-24T09:10:55.584Z,9.87
2023-06-24T09:13:24.088Z,8.57
2023-06-24T09:15:50.696Z,9.00
2023-06-24T09:18:18.339Z,8.87
2023-06-24T09:20:46.800Z,9.90
2023-06-24T09:23:13.431Z,9.30
2023-06-24T09:25:40.225Z,8.60
2023-06-24T09:28:06.852Z,9.97
2023-06-24T09:30:33.474Z,10.33
2023-06-24T09:33:00.210Z,9.30
2023-06-24T09:35:27.094Z,9.30
2023-06-24T09:37:57.437Z,10.53
2023-06-24T09:40:24.389Z,10.10
2023-06-24T09:42:55.435Z,8.87
2023-06-24T09:45:29.146Z,9.83
2023-06-24T09:47:56.130Z,10.00
2023-06-24T09:50:22.798Z,9.67
2023-06-24T09:52:50.404Z,9.77
2023-06-24T09:55:17.591Z,10.10
2023-06-24T09:57:46.354Z,9.63
2023-06-24T10:00:16.330Z,10.43
2023-06-24T10:02:43.586Z,9.67
2023-06-24T10:05:10.616Z,8.97
2023-06-24T10:07:37.532Z,8.60
2023-06-24T10:10:04.712Z,8.67
2023-06-24T10:12:32.997Z,8.87
2023-06-24T10:15:00.664Z,8.87
2023-06-24T10:17:27.361Z,9.20
2023-06-24T10:19:57.193Z,9.30
2023-06-24T10:22:27.275Z,8.93
2023-06-24T10:24:54.234Z,8.07
2023-06-24T10:27:25.330Z,8.90
2023-06-24T10:29:57.269Z,8.47
2023-06-24T10:32:24.293Z,7.83
2023-06-24T10:34:57.974Z,8.20
2023-06-24T10:37:26.313Z,8.67
2023-06-24T10:39:53.186Z,9.07
2023-06-24T10:42:31.826Z,7.77
2023-06-24T10:44:59.455Z,7.90
2023-06-24T10:47:27.022Z,8.47
2023-06-24T10:49:53.796Z,7.77
2023-06-24T10:52:24.131Z,6.90
2023-06-24T10:54:51.580Z,8.20
2023-06-24T10:57:23.148Z,8.23
2023-06-24T10:59:52.845Z,8.23
2023-06-24T11:02:23.252Z,7.13
2023-06-24T11:04:51.028Z,7.50
2023-06-24T11:07:21.615Z,7.80
2023-06-24T11:09:51.540Z,7.50
2023-06-24T11:12:18.585Z,6.80
2023-06-24T11:14:45.218Z,7.00
2023-06-24T11:17:12.042Z,6.73
2023-06-24T11:19:40.933Z,6.57
2023-06-24T11:22:08.308Z,7.03
2023-06-24T11:24:35.747Z,6.87
2023-06-24T11:27:03.101Z,6.70
2023-06-24T11:29:30.593Z,6.53
2023-06-24T11:31:57.256Z,6.33
2023-06-24T11:34:23.926Z,6.70
2023-06-24T11:36:50.718Z,6.53
2023-06-24T11:39:29.433Z,5.80
2023-06-24T11:41:58.691Z,5.70
2023-06-24T11:44:25.529Z,5.97
2023-06-24T11:46:52.129Z,5.83
2023-06-24T11:49:19.423Z,5.43
2023-06-24T11:51:48.485Z,5.50
2023-06-24T11:54:15.954Z,5.30
2023-06-24T11:56:43.537Z,5.43
2023-06-24T11:59:23.954Z,5.53
2023-06-24T12:01:57.447Z,5.63
2023-06-24T12:04:33.795Z,5.33
2023-06-24T12:07:00.900Z,4.87
2023-06-24T12:09:27.640Z,5.40
2023-06-24T12:11:54.225Z,5.43
2023-06-24T12:14:20.859Z,5.53
2023-06-24T12:16:47.453Z,4.70
2023-06-24T12:19:14.133Z,4.93
2023-06-24T12:21:40.822Z,5.23
2023-06-24T12:24:07.512Z,4.83
2023-06-24T12:26:34.078Z,4.70
2023-06-24T12:29:01.399Z,5.50
2023-06-24T12:31:28.054Z,4.80
2023-06-24T12:33:54.683Z,5.53
2023-06-24T12:36:22.307Z,5.00
2023-06-24T12:38:49.025Z,5.23
2023-06-24T12:41:15.594Z,5.40
2023-06-24T12:43:42.186Z,5.10
2023-06-24T12:46:08.810Z,5.23
2023-06-24T12:48:35.395Z,5.90
2023-06-24T12:51:02.036Z,5.33
2023-06-24T12:53:28.713Z,5.27
2023-06-24T12:55:56.306Z,5.23
2023-06-24T12:58:23.852Z,5.13
2023-06-24T13:00:50.561Z,5.70
2023-06-24T13:03:17.128Z,5.53
2023-06-24T13:05:43.724Z,5.60
2023-06-24T13:08:12.138Z,5.00
2023-06-24T13:10:39.772Z,5.03
2023-06-24T13:13:06.407Z,5.00
2023-06-24T13:15:33.012Z,5.33
2023-06-24T13:17:59.667Z,5.00
2023-06-24T13:20:26.338Z,5.50
2023-06-24T13:22:53.304Z,5.30
2023-06-24T13:25:19.970Z,5.83
2023-06-24T13:27:46.768Z,5.27
2023-06-24T13:30:16.204Z,5.73
2023-06-24T13:32:42.957Z,5.10
2023-06-24T13:35:09.982Z,5.30
2023-06-24T13:37:36.623Z,5.30
2023-06-24T13:40:04.379Z,5.00
2023-06-24T13:42:30.972Z,5.20
2023-06-24T13:44:57.580Z,5.10
2023-06-24T13:47:24.537Z,5.10
2023-06-24T13:49:51.197Z,4.80
2023-06-24T13:52:17.789Z,4.97
2023-06-24T13:54:44.449Z,4.13
2023-06-24T13:57:11.084Z,4.90
2023-06-24T13:59:37.660Z,4.77
2023-06-24T14:02:04.420Z,4.60
2023-06-24T14:04:31.547Z,4.70
2023-06-24T14:06:58.177Z,4.97
2023-06-24T14:09:24.879Z,4.73
2023-06-24T14:11:52.674Z,4.77
2023-06-24T14:14:19.422Z,4.10
2023-06-24T14:16:47.265Z,4.60
2023-06-24T14:19:13.996Z,4.60
2023-06-24T14:21:40.780Z,4.50
2023-06-24T14:24:15.873Z,4.27
2023-06-24T14:26:43.575Z,4.00
2023-06-24T14:29:10.179Z,4.10
2023-06-24T14:31:36.773Z,3.70
2023-06-24T14:34:03.417Z,4.00
2023-06-24T14:36:29.983Z,4.43
2023-06-24T14:38:56.590Z,4.37
2023-06-24T14:41:23.224Z,4.40
2023-06-24T14:43:49.823Z,4.00
2023-06-24T14:46:16.510Z,4.13
2023-06-24T14:48:43.177Z,4.13
2023-06-24T14:51:09.773Z,4.40
2023-06-24T14:53:36.401Z,4.00
2023-06-24T14:56:02.997Z,3.97
2023-06-24T14:58:29.722Z,4.40
2023-06-24T15:00:56.367Z,4.17
2023-06-24T15:03:23.082Z,4.30
2023-06-24T15:05:49.776Z,4.20
2023-06-24T15:08:16.465Z,4.13
2023-06-24T15:10:43.072Z,4.30
2023-06-24T15:13:10.238Z,3.87
2023-06-24T15:15:37.120Z,4.10
2023-06-24T15:18:04.066Z,3.80
2023-06-24T15:20:30.657Z,3.90
2023-06-24T15:22:57.267Z,4.10
2023-06-24T15:25:23.835Z,4.53
2023-06-24T15:27:50.636Z,4.77
2023-06-24T15:30:17.389Z,4.27
2023-06-24T15:32:45.768Z,4.23
2023-06-24T15:35:12.448Z,4.47
2023-06-24T15:37:39.063Z,4.20
2023-06-24T15:40:06.000Z,4.77
2023-06-24T15:42:32.588Z,3.90
2023-06-24T15:44:59.186Z,3.70
2023-06-24T15:47:25.815Z,4.10
2023-06-24T15:49:52.962Z,4.70
2023-06-24T15:52:20.053Z,4.80
2023-06-24T15:54:46.648Z,4.47
2023-06-24T15:57:13.670Z,4.77
2023-06-24T15:59:40.294Z,4.23
2023-06-24T16:02:07.321Z,3.97
2023-06-24T16:04:33.955Z,4.10
2023-06-24T16:07:00.715Z,4.13
2023-06-24T16:09:27.389Z,4.00
2023-06-24T16:11:54.099Z,4.03
2023-06-24T16:14:20.672Z,3.50
2023-06-24T16:16:48.179Z,4.20
2023-06-24T16:19:14.969Z,3.93
2023-06-24T16:21:41.544Z,4.00
2023-06-24T16:24:08.140Z,3.73
2023-06-24T16:26:47.544Z,3.80
2023-06-24T16:29:14.527Z,4.37
2023-06-24T16:31:41.142Z,3.97
2023-06-24T16:34:18.666Z,3.80
2023-06-24T16:36:49.701Z,3.60
2023-06-24T16:39:16.318Z,4.00
2023-06-24T16:41:43.108Z,3.90
2023-06-24T16:44:09.705Z,3.90
2023-06-24T16:46:36.331Z,3.77
2023-06-24T16:49:07.829Z,3.73
2023-06-24T16:51:34.764Z,3.73
2023-06-24T16:54:01.408Z,3.83
2023-06-24T16:56:28.047Z,3.53
2023-06-24T16:58:54.809Z,3.90
2023-06-24T17:01:21.794Z,4.07
2023-06-24T17:03:48.406Z,4.07
2023-06-24T17:06:15.006Z,3.80
2023-06-24T17:08:41.562Z,3.80
2023-06-24T17:11:08.281Z,3.90
2023-06-24T17:13:34.863Z,3.57
2023-06-24T17:16:01.460Z,4.00
2023-06-24T17:18:30.667Z,4.30
2023-06-24T17:20:57.262Z,4.00
2023-06-24T17:23:24.909Z,3.92
2023-06-24T17:25:51.612Z,3.65
2023-06-24T17:28:18.270Z,3.70
2023-06-24T17:30:44.926Z,4.00
2023-06-24T17:33:11.576Z,3.53
2023-06-24T17:35:38.151Z,3.90
2023-06-24T17:38:04.761Z,4.22
2023-06-24T17:40:31.373Z,3.65
2023-06-24T17:42:58.119Z,3.63
2023-06-24T17:45:26.280Z,4.03
2023-06-24T17:47:54.133Z,4.07
2023-06-24T17:50:22.382Z,4.25
2023-06-24T17:52:49.009Z,4.30
2023-06-24T17:55:15.615Z,4.17
2023-06-24T17:57:42.163Z,4.00
2023-06-24T18:00:09.698Z,4.10
2023-06-24T18:02:36.219Z,4.03
2023-06-24T18:05:02.918Z,4.00
2023-06-24T18:07:29.635Z,4.10
2023-06-24T18:09:56.665Z,4.17
2023-06-24T18:12:23.359Z,4.23
2023-06-24T18:14:49.917Z,4.43
2023-06-24T18:17:16.492Z,4.20
2023-06-24T18:19:45.070Z,4.07
2023-06-24T18:22:12.123Z,4.30
2023-06-24T18:24:39.269Z,4.00
2023-06-24T18:27:06.395Z,4.63
2023-06-24T18:29:33.061Z,4.20
2023-06-24T18:31:59.676Z,4.00
2023-06-24T18:34:26.804Z,4.50
2023-06-24T18:36:53.497Z,4.30
2023-06-24T18:39:20.144Z,4.23
2023-06-24T18:41:46.810Z,4.87
2023-06-24T18:44:13.949Z,4.33
2023-06-24T18:46:40.614Z,4.23
2023-06-24T18:49:07.205Z,4.27
2023-06-24T18:51:33.860Z,4.77
2023-06-24T18:54:00.514Z,4.73
2023-06-24T18:56:27.074Z,4.70
2023-06-24T18:58:53.720Z,4.50
2023-06-24T19:01:20.370Z,4.70
2023-06-24T19:03:46.966Z,4.30
2023-06-24T19:06:13.643Z,5.00
2023-06-24T19:08:40.262Z,4.70
2023-06-24T19:11:06.890Z,4.50
2023-06-24T19:13:33.622Z,4.70
2023-06-24T19:16:00.308Z,4.77
2023-06-24T19:18:26.960Z,5.30
2023-06-24T19:20:53.541Z,5.10
2023-06-24T19:23:20.263Z,5.07
2023-06-24T19:25:46.838Z,5.50
2023-06-24T19:28:13.441Z,4.73
2023-06-24T19:30:40.180Z,5.70
2023-06-24T19:33:07.005Z,5.07
2023-06-24T19:35:33.663Z,5.73
2023-06-24T19:38:00.875Z,6.23
2023-06-24T19:40:27.575Z,5.50
2023-06-24T19:42:54.166Z,5.43
2023-06-24T19:45:20.905Z,5.67
2023-06-24T19:47:47.595Z,5.60
2023-06-24T19:50:14.422Z,5.80
2023-06-24T19:52:41.266Z,5.77
2023-06-24T19:55:08.007Z,6.17
2023-06-24T19:57:39.504Z,5.87
2023-06-24T20:00:12.969Z,5.63
2023-06-24T20:02:44.542Z,6.20
2023-06-24T20:05:11.450Z,6.80
2023-06-24T20:07:38.055Z,5.93
2023-06-24T20:10:04.826Z,6.53
2023-06-24T20:12:31.561Z,7.23
2023-06-24T20:14:58.263Z,6.90
2023-06-24T20:17:24.950Z,6.20
2023-06-24T20:19:51.575Z,6.63
2023-06-24T20:22:18.251Z,7.00
2023-06-24T20:24:44.835Z,6.47
2023-06-24T20:27:11.439Z,6.70
2023-06-24T20:29:38.200Z,7.07
2023-06-24T20:32:05.091Z,6.53
2023-06-24T20:34:31.736Z,7.03
2023-06-24T20:36:58.312Z,6.67
2023-06-24T20:39:25.330Z,6.37
2023-06-24T20:41:51.948Z,6.67
2023-06-24T20:44:18.474Z,6.97
2023-06-24T20:46:45.084Z,6.70
2023-06-24T20:49:11.654Z,6.53
2023-06-24T20:51:40.544Z,5.87
2023-06-24T20:54:07.106Z,6.90
2023-06-24T20:56:34.187Z,6.67
2023-06-24T20:59:00.799Z,6.20
2023-06-24T21:01:27.437Z,6.73
2023-06-24T21:03:54.537Z,6.50
2023-06-24T21:06:21.242Z,6.70
2023-06-24T21:08:47.836Z,6.50
2023-06-24T21:11:14.532Z,6.70
2023-06-24T21:13:41.171Z,6.90
2023-06-24T21:16:08.339Z,6.53
2023-06-24T21:18:34.982Z,6.40
2023-06-24T21:21:01.581Z,6.60
2023-06-24T21:23:28.244Z,6.80
2023-06-24T21:25:54.807Z,7.03
2023-06-24T21:28:21.428Z,6.60
2023-06-24T21:30:50.640Z,6.90
2023-06-24T21:33:18.302Z,7.10
2023-06-24T21:35:56.490Z,6.97
2023-06-24T21:38:27.641Z,7.00
2023-06-24T21:40:54.530Z,7.00
2023-06-24T21:43:21.291Z,7.10
2023-06-24T21:45:47.961Z,6.90
2023-06-24T21:48:14.804Z,7.73
2023-06-24T21:50:41.374Z,7.20
2023-06-24T21:53:07.998Z,7.17
2023-06-24T21:55:34.585Z,9.43
2023-06-24T21:58:01.330Z,8.27
2023-06-24T22:00:28.373Z,10.00
2023-06-24T22:02:56.120Z,10.43
2023-06-24T22:05:34.011Z,10.17
2023-06-24T22:08:02.814Z,8.87
2023-06-24T22:10:30.019Z,7.97
2023-06-24T22:12:56.623Z,7.83
2023-06-24T22:15:23.273Z,7.67
2023-06-24T22:17:50.007Z,7.73
2023-06-24T22:20:16.967Z,8.10
2023-06-24T22:22:44.210Z,7.17
2023-06-24T22:25:11.568Z,7.30
2023-06-24T22:27:38.535Z,7.70
2023-06-24T22:30:05.865Z,7.23
2023-06-24T22:32:32.572Z,7.07
2023-06-24T22:34:59.172Z,7.60
2023-06-24T22:37:25.793Z,7.27
2023-06-24T22:39:52.400Z,7.30
2023-06-24T22:42:19.003Z,8.00
2023-06-24T22:44:45.610Z,7.33
2023-06-24T22:47:12.313Z,6.90
2023-06-24T22:49:38.927Z,8.10
2023-06-24T22:52:05.846Z,7.80
2023-06-24T22:54:32.421Z,7.77
2023-06-24T22:56:59.079Z,8.80
2023-06-24T22:59:25.674Z,9.10
2023-06-24T23:01:52.352Z,8.60
2023-06-24T23:04:19.080Z,7.83
2023-06-24T23:06:45.814Z,7.37
2023-06-24T23:09:13.567Z,6.70
2023-06-24T23:11:40.682Z,7.37
2023-06-24T23:14:07.630Z,7.30
2023-06-24T23:16:34.310Z,6.67
2023-06-24T23:19:01.081Z,7.20
2023-06-24T23:21:27.839Z,7.37
2023-06-24T23:23:54.702Z,7.23
2023-06-24T23:26:21.646Z,6.97
2023-06-24T23:28:50.423Z,6.53
2023-06-24T23:31:21.262Z,6.80
2023-06-24T23:33:48.297Z,7.60
2023-06-24T23:36:15.908Z,7.37
2023-06-24T23:38:42.577Z,7.13
2023-06-24T23:41:09.400Z,7.30
2023-06-24T23:43:36.105Z,7.70
2023-06-24T23:46:05.764Z,7.93
2023-06-24T23:48:32.414Z,8.40
2023-06-24T23:50:59.063Z,7.83
2023-06-24T23:53:25.643Z,7.47
2023-06-24T23:55:52.479Z,8.03
2023-06-24T23:58:19.110Z,8.17
